www.cux-wetter.de
Wetterdaten: Woche 27.07.09 - 02.08.09 (KW31)
Datum Zeit Temp. A. Feuchte A. Luftdruck Regen Wind Richtung Sonnenschein Solar Taupunkt Windchill Windben
27.07.2009 00:00 18,0 C 79 % 1014,2 hPa 0,0 l/m 7,1 km/h (2 Bft) S-SO 0,00 h 0 W/m 14,3 C 17,3 C 7,1 km/h (2 Bft)
27.07.2009 01:00 17,6 C 82 % 1013,5 hPa 0,0 l/m 8,8 km/h (2 Bft) S-SO 0,00 h 0 W/m 14,4 C 16,4 C 8,8 km/h (2 Bft)
27.07.2009 02:00 17,3 C 84 % 1012,7 hPa 0,0 l/m 9,0 km/h (2 Bft) S-SO 0,00 h 0 W/m 14,5 C 16,0 C 9,0 km/h (2 Bft)
27.07.2009 03:00 17,3 C 83 % 1012,3 hPa 0,0 l/m 8,9 km/h (2 Bft) S 0,00 h 0 W/m 14,4 C 16,2 C 8,9 km/h (2 Bft)
27.07.2009 04:00 17,6 C 80 % 1011,5 hPa 0,0 l/m 7,3 km/h (2 Bft) S 0,00 h 0 W/m 14,0 C 17,0 C 7,3 km/h (2 Bft)
27.07.2009 05:00 17,4 C 77 % 1011,0 hPa 0,0 l/m 10,0 km/h (2 Bft) S 0,00 h 0 W/m 13,4 C 15,9 C 10,0 km/h (2 Bft)
27.07.2009 06:00 17,2 C 78 % 1010,5 hPa 0,0 l/m 11,5 km/h (2 Bft) S 0,00 h 0 W/m 13,4 C 15,1 C 11,5 km/h (2 Bft)
27.07.2009 07:00 17,7 C 77 % 1010,0 hPa 0,0 l/m 12,7 km/h (3 Bft) S 0,00 h 0 W/m 13,5 C 15,2 C 12,7 km/h (3 Bft)
27.07.2009 08:00 18,9 C 75 % 1009,5 hPa 0,0 l/m 12,4 km/h (2 Bft) S 0,00 h 0 W/m 14,3 C 16,6 C 12,4 km/h (2 Bft)
27.07.2009 09:00 20,4 C 71 % 1009,5 hPa 0,0 l/m 14,9 km/h (3 Bft) SW 0,00 h 0 W/m 14,8 C 17,7 C 14,9 km/h (3 Bft)
27.07.2009 10:00 22,3 C 65 % 1008,8 hPa 0,0 l/m 16,1 km/h (3 Bft) W-SW 0,00 h 0 W/m 15,3 C 19,8 C 16,1 km/h (3 Bft)
27.07.2009 11:00 24,4 C 60 % 1008,5 hPa 0,0 l/m 16,4 km/h (3 Bft) S-SW 0,00 h 0 W/m 16,2 C 22,4 C 16,4 km/h (3 Bft)
27.07.2009 12:00 26,2 C 52 % 1008,5 hPa 0,0 l/m 20,5 km/h (4 Bft) W-SW 0,00 h 0 W/m 15,6 C 24,2 C 20,5 km/h (4 Bft)
27.07.2009 13:00 26,1 C 50 % 1007,9 hPa 0,0 l/m 22,0 km/h (4 Bft) W-SW 0,00 h 0 W/m 14,9 C 24,0 C 22,0 km/h (4 Bft)
27.07.2009 14:00 26,6 C 47 % 1007,3 hPa 0,0 l/m 20,8 km/h (4 Bft) W-SW 0,00 h 0 W/m 14,2 C 24,6 C 20,8 km/h (4 Bft)
27.07.2009 15:00 26,7 C 48 % 1006,5 hPa 0,0 l/m 16,0 km/h (3 Bft) W-SW 0,00 h 0 W/m 14,7 C 25,3 C 16,0 km/h (3 Bft)
27.07.2009 16:00 26,3 C 51 % 1006,5 hPa 0,0 l/m 19,1 km/h (3 Bft) N-NO 0,00 h 0 W/m 15,1 C 24,5 C 19,1 km/h (3 Bft)
27.07.2009 17:00 23,5 C 64 % 1006,5 hPa 0,0 l/m 8,7 km/h (2 Bft) NO 0,00 h 0 W/m 16,1 C 22,7 C 8,7 km/h (2 Bft)
27.07.2009 18:00 22,6 C 67 % 1006,5 hPa 0,0 l/m 4,2 km/h (1 Bft) N-NO 0,00 h 0 W/m 16,2 C 22,3 C 4,2 km/h (1 Bft)
27.07.2009 19:00 20,1 C 78 % 1006,5 hPa 0,6 l/m 10,8 km/h (2 Bft) N 0,00 h 0 W/m 16,1 C 18,5 C 10,8 km/h (2 Bft)
27.07.2009 20:00 19,0 C 83 % 1006,8 hPa 0,0 l/m 11,1 km/h (2 Bft) N 0,00 h 0 W/m 16,1 C 17,2 C 11,1 km/h (2 Bft)
27.07.2009 21:00 17,9 C 86 % 1007,9 hPa 0,9 l/m 17,5 km/h (3 Bft) N-NO 0,00 h 0 W/m 15,4 C 14,1 C 17,5 km/h (3 Bft)
27.07.2009 22:00 17,3 C 87 % 1008,5 hPa 2,1 l/m 11,5 km/h (2 Bft) NW 0,00 h 0 W/m 15,2 C 15,2 C 11,5 km/h (2 Bft)
27.07.2009 23:00 17,3 C 88 % 1009,4 hPa 0,3 l/m 6,9 km/h (2 Bft) W-SW 0,00 h 0 W/m 15,3 C 16,8 C 6,9 km/h (2 Bft)
28.07.2009 00:00 16,6 C 89 % 1009,8 hPa 0,0 l/m 22,3 km/h (4 Bft) NW 0,00 h 0 W/m 14,7 C 11,5 C 22,3 km/h (4 Bft)
28.07.2009 01:00 15,8 C 88 % 1010,6 hPa 0,0 l/m 22,7 km/h (4 Bft) NW 0,00 h 0 W/m 13,8 C 10,2 C 22,7 km/h (4 Bft)
28.07.2009 02:00 15,3 C 85 % 1011,5 hPa 0,0 l/m 18,4 km/h (3 Bft) NW 0,00 h 0 W/m 12,9 C 10,6 C 18,4 km/h (3 Bft)
28.07.2009 03:00 15,4 C 82 % 1012,2 hPa 0,0 l/m 16,4 km/h (3 Bft) NW 0,00 h 0 W/m 12,4 C 11,3 C 16,4 km/h (3 Bft)
28.07.2009 04:00 15,7 C 80 % 1012,7 hPa 0,0 l/m 13,4 km/h (3 Bft) W-NW 0,00 h 0 W/m 12,2 C 12,6 C 13,4 km/h (3 Bft)
28.07.2009 05:00 15,5 C 86 % 1013,5 hPa 0,0 l/m 15,4 km/h (3 Bft) W 0,00 h 0 W/m 13,1 C 11,7 C 15,4 km/h (3 Bft)
28.07.2009 06:00 15,7 C 88 % 1013,8 hPa 0,0 l/m 19,8 km/h (3 Bft) W-SW 0,00 h 0 W/m 13,7 C 10,7 C 19,8 km/h (3 Bft)
28.07.2009 07:00 16,2 C 87 % 1014,5 hPa 0,0 l/m 22,5 km/h (4 Bft) W 0,00 h 0 W/m 14,1 C 10,7 C 22,5 km/h (4 Bft)
28.07.2009 08:00 16,7 C 86 % 1015,3 hPa 0,0 l/m 21,1 km/h (4 Bft) W 0,00 h 0 W/m 14,4 C 11,7 C 21,1 km/h (4 Bft)
28.07.2009 09:00 17,3 C 84 % 1015,6 hPa 0,0 l/m 20,8 km/h (4 Bft) W 0,00 h 0 W/m 14,6 C 12,6 C 20,8 km/h (4 Bft)
28.07.2009 10:00 19,0 C 78 % 1016,5 hPa 0,0 l/m 19,3 km/h (3 Bft) W 0,00 h 0 W/m 15,1 C 15,0 C 19,3 km/h (3 Bft)
28.07.2009 11:00 19,9 C 73 % 1016,5 hPa 0,0 l/m 21,0 km/h (4 Bft) W 0,00 h 0 W/m 14,9 C 15,9 C 21,0 km/h (4 Bft)
28.07.2009 12:00 21,3 C 65 % 1016,5 hPa 0,0 l/m 19,3 km/h (3 Bft) W 0,00 h 0 W/m 14,6 C 18,1 C 19,3 km/h (3 Bft)
28.07.2009 13:00 20,3 C 65 % 1017,4 hPa 0,3 l/m 16,0 km/h (3 Bft) W 0,00 h 0 W/m 13,4 C 17,5 C 16,0 km/h (3 Bft)
28.07.2009 14:00 17,0 C 75 % 1017,5 hPa 1,2 l/m 10,1 km/h (2 Bft) NW 0,00 h 0 W/m 12,5 C 15,0 C 10,1 km/h (2 Bft)
28.07.2009 15:00 16,6 C 82 % 1018,3 hPa 5,1 l/m 7,7 km/h (2 Bft) W-SW 0,00 h 0 W/m 13,5 C 15,4 C 7,7 km/h (2 Bft)
28.07.2009 16:00 17,3 C 84 % 1018,5 hPa 0,3 l/m 4,2 km/h (1 Bft) NW 0,00 h 0 W/m 14,5 C 16,9 C 4,2 km/h (1 Bft)
28.07.2009 17:00 18,9 C 82 % 1018,5 hPa 0,0 l/m 0,9 km/h (0 Bft) SW 0,00 h 0 W/m 15,8 C 18,9 C 0,9 km/h (0 Bft)
28.07.2009 18:00 18,3 C 81 % 1018,5 hPa 0,3 l/m 5,9 km/h (2 Bft) W-SW 0,00 h 0 W/m 15,0 C 17,8 C 5,9 km/h (2 Bft)
28.07.2009 19:00 18,0 C 82 % 1018,5 hPa 0,0 l/m 2,9 km/h (1 Bft) W 0,00 h 0 W/m 14,8 C 18,0 C 2,9 km/h (1 Bft)
28.07.2009 20:00 17,9 C 82 % 1018,5 hPa 0,0 l/m 1,3 km/h (1 Bft) W 0,00 h 0 W/m 14,8 C 17,9 C 1,3 km/h (1 Bft)
28.07.2009 21:00 17,8 C 82 % 1018,6 hPa 0,0 l/m 0,1 km/h (0 Bft) W 0,00 h 0 W/m 14,7 C 17,8 C 0,1 km/h (0 Bft)
28.07.2009 22:00 17,3 C 82 % 1019,3 hPa 0,0 l/m 0,3 km/h (0 Bft) N 0,00 h 0 W/m 14,2 C 17,3 C 0,3 km/h (0 Bft)
28.07.2009 23:00 16,8 C 83 % 1019,0 hPa 0,0 l/m 0,7 km/h (0 Bft) W 0,00 h 0 W/m 13,8 C 16,8 C 0,7 km/h (0 Bft)
29.07.2009 00:00 16,2 C 83 % 1018,5 hPa 0,0 l/m 4,6 km/h (1 Bft) S-SW 0,00 h 0 W/m 13,3 C 16,1 C 4,6 km/h (1 Bft)
29.07.2009 01:00 15,3 C 84 % 1018,5 hPa 0,0 l/m 6,3 km/h (2 Bft) S 0,00 h 0 W/m 12,6 C 14,9 C 6,3 km/h (2 Bft)
29.07.2009 02:00 14,8 C 86 % 1018,5 hPa 0,0 l/m 9,2 km/h (2 Bft) S 0,00 h 0 W/m 12,4 C 13,3 C 9,2 km/h (2 Bft)
29.07.2009 03:00 14,4 C 87 % 1018,5 hPa 0,0 l/m 11,6 km/h (2 Bft) S 0,00 h 0 W/m 12,2 C 11,9 C 11,6 km/h (2 Bft)
29.07.2009 04:00 14,4 C 87 % 1018,1 hPa 0,0 l/m 9,6 km/h (2 Bft) S 0,00 h 0 W/m 12,3 C 12,7 C 9,6 km/h (2 Bft)
29.07.2009 05:00 14,4 C 86 % 1017,5 hPa 0,0 l/m 12,5 km/h (2 Bft) S 0,00 h 0 W/m 12,1 C 11,4 C 12,5 km/h (2 Bft)
29.07.2009 06:00 14,6 C 86 % 1017,5 hPa 0,0 l/m 13,7 km/h (3 Bft) S-SO 0,00 h 0 W/m 12,2 C 11,2 C 13,7 km/h (3 Bft)
29.07.2009 07:00 14,9 C 84 % 1017,5 hPa 0,0 l/m 12,5 km/h (2 Bft) S 0,00 h 0 W/m 12,3 C 12,0 C 12,5 km/h (2 Bft)
29.07.2009 08:00 15,5 C 84 % 1017,5 hPa 0,0 l/m 9,8 km/h (2 Bft) S 0,00 h 0 W/m 12,8 C 13,8 C 9,8 km/h (2 Bft)
29.07.2009 09:00 16,9 C 82 % 1017,5 hPa 0,0 l/m 13,8 km/h (3 Bft) S 0,00 h 0 W/m 13,7 C 13,9 C 13,8 km/h (3 Bft)
29.07.2009 10:00 20,2 C 72 % 1017,2 hPa 0,0 l/m 14,6 km/h (3 Bft) S 0,00 h 0 W/m 14,9 C 17,6 C 14,6 km/h (3 Bft)
29.07.2009 11:00 23,0 C 64 % 1016,5 hPa 0,0 l/m 13,7 km/h (3 Bft) S 0,00 h 0 W/m 15,8 C 21,2 C 13,7 km/h (3 Bft)
29.07.2009 12:00 25,6 C 52 % 1016,3 hPa 0,0 l/m 18,4 km/h (3 Bft) S-SW 0,00 h 0 W/m 15,0 C 23,6 C 18,4 km/h (3 Bft)
29.07.2009 13:00 25,9 C 50 % 1015,5 hPa 0,0 l/m 17,1 km/h (3 Bft) S 0,00 h 0 W/m 14,8 C 24,2 C 17,1 km/h (3 Bft)
29.07.2009 14:00 24,8 C 51 % 1015,5 hPa 0,0 l/m 15,6 km/h (3 Bft) S-SW 0,00 h 0 W/m 14,0 C 23,1 C 15,6 km/h (3 Bft)
29.07.2009 15:00 24,3 C 54 % 1015,5 hPa 0,0 l/m 15,8 km/h (3 Bft) S-SW 0,00 h 0 W/m 14,5 C 22,4 C 15,8 km/h (3 Bft)
29.07.2009 16:00 24,0 C 58 % 1014,6 hPa 0,0 l/m 9,5 km/h (2 Bft) S-SO 0,00 h 0 W/m 15,1 C 23,2 C 9,5 km/h (2 Bft)
29.07.2009 17:00 24,3 C 58 % 1013,9 hPa 0,0 l/m 9,5 km/h (2 Bft) O 0,00 h 0 W/m 15,6 C 23,5 C 9,5 km/h (2 Bft)
29.07.2009 18:00 23,4 C 61 % 1013,4 hPa 0,0 l/m 9,3 km/h (2 Bft) O-SO 0,00 h 0 W/m 15,5 C 22,5 C 9,3 km/h (2 Bft)
29.07.2009 19:00 22,1 C 64 % 1012,5 hPa 0,0 l/m 10,6 km/h (2 Bft) SO 0,00 h 0 W/m 14,9 C 20,8 C 10,6 km/h (2 Bft)
29.07.2009 20:00 21,2 C 68 % 1012,3 hPa 0,0 l/m 6,3 km/h (2 Bft) O-SO 0,00 h 0 W/m 15,0 C 20,9 C 6,3 km/h (2 Bft)
29.07.2009 21:00 20,4 C 72 % 1011,5 hPa 0,0 l/m 5,5 km/h (2 Bft) SO 0,00 h 0 W/m 15,1 C 20,2 C 5,5 km/h (2 Bft)
29.07.2009 22:00 19,6 C 74 % 1011,3 hPa 0,0 l/m 4,5 km/h (1 Bft) O-SO 0,00 h 0 W/m 14,7 C 19,6 C 4,5 km/h (1 Bft)
29.07.2009 23:00 19,0 C 73 % 1010,3 hPa 0,0 l/m 6,8 km/h (2 Bft) S-SO 0,00 h 0 W/m 14,0 C 18,8 C 6,8 km/h (2 Bft)
30.07.2009 00:00 18,6 C 72 % 1009,5 hPa 0,0 l/m 9,5 km/h (2 Bft) S-SO 0,00 h 0 W/m 13,5 C 17,3 C 9,5 km/h (2 Bft)
30.07.2009 01:00 18,4 C 72 % 1008,5 hPa 0,0 l/m 11,9 km/h (2 Bft) S-SO 0,00 h 0 W/m 13,2 C 16,2 C 11,9 km/h (2 Bft)
30.07.2009 02:00 18,0 C 73 % 1007,3 hPa 0,0 l/m 13,5 km/h (3 Bft) S-SO 0,00 h 0 W/m 13,0 C 15,2 C 13,5 km/h (3 Bft)
30.07.2009 03:00 18,1 C 72 % 1006,5 hPa 0,0 l/m 16,9 km/h (3 Bft) S 0,00 h 0 W/m 12,9 C 14,5 C 16,9 km/h (3 Bft)
30.07.2009 04:00 17,3 C 80 % 1007,0 hPa 1,2 l/m 18,6 km/h (3 Bft) S-SW 0,00 h 0 W/m 13,8 C 13,2 C 18,6 km/h (3 Bft)
30.07.2009 05:00 16,9 C 87 % 1007,5 hPa 3,0 l/m 20,2 km/h (4 Bft) SW 0,00 h 0 W/m 14,6 C 12,2 C 20,2 km/h (4 Bft)
30.07.2009 06:00 16,7 C 89 % 1006,9 hPa 0,0 l/m 13,5 km/h (3 Bft) S-SW 0,00 h 0 W/m 14,8 C 13,8 C 13,5 km/h (3 Bft)
30.07.2009 07:00 17,3 C 90 % 1006,8 hPa 0,0 l/m 22,8 km/h (4 Bft) W-SW 0,00 h 0 W/m 15,7 C 12,3 C 22,8 km/h (4 Bft)
30.07.2009 08:00 17,8 C 83 % 1007,5 hPa 0,0 l/m 31,2 km/h (5 Bft) W-SW 0,00 h 0 W/m 14,9 C 11,5 C 31,2 km/h (5 Bft)
30.07.2009 09:00 18,1 C 76 % 1008,2 hPa 0,0 l/m 41,2 km/h (6 Bft) W 0,00 h 0 W/m 13,8 C 10,8 C 41,2 km/h (6 Bft)
30.07.2009 10:00 18,6 C 68 % 1009,2 hPa 0,0 l/m 45,8 km/h (6 Bft) W 0,00 h 0 W/m 12,6 C 11,3 C 45,8 km/h (6 Bft)
30.07.2009 11:00 19,4 C 63 % 1010,2 hPa 0,0 l/m 42,6 km/h (6 Bft) W 0,00 h 0 W/m 12,3 C 12,7 C 42,6 km/h (6 Bft)
30.07.2009 12:00 19,3 C 64 % 1011,2 hPa 0,0 l/m 37,6 km/h (5 Bft) W 0,00 h 0 W/m 12,2 C 12,9 C 37,6 km/h (5 Bft)
30.07.2009 13:00 17,1 C 78 % 1012,3 hPa 3,3 l/m 27,7 km/h (5 Bft) W 0,00 h 0 W/m 13,3 C 11,1 C 27,7 km/h (5 Bft)
30.07.2009 14:00 18,3 C 73 % 1012,7 hPa 1,2 l/m 38,8 km/h (6 Bft) W 0,00 h 0 W/m 13,3 C 11,3 C 38,8 km/h (6 Bft)
30.07.2009 15:00 18,0 C 75 % 1013,5 hPa 0,3 l/m 32,5 km/h (5 Bft) W 0,00 h 0 W/m 13,5 C 11,6 C 32,5 km/h (5 Bft)
30.07.2009 16:00 18,7 C 68 % 1014,2 hPa 0,0 l/m 38,8 km/h (6 Bft) NW 0,00 h 0 W/m 12,6 C 11,9 C 38,8 km/h (6 Bft)
30.07.2009 17:00 17,1 C 76 % 1015,3 hPa 0,3 l/m 32,9 km/h (5 Bft) W-NW 0,00 h 0 W/m 12,8 C 10,3 C 32,9 km/h (5 Bft)
30.07.2009 18:00 17,6 C 69 % 1015,5 hPa 0,0 l/m 31,2 km/h (5 Bft) NW 0,00 h 0 W/m 11,8 C 11,2 C 31,2 km/h (5 Bft)
30.07.2009 19:00 17,4 C 65 % 1015,8 hPa 0,0 l/m 28,1 km/h (5 Bft) NW 0,00 h 0 W/m 10,7 C 11,4 C 28,1 km/h (5 Bft)
30.07.2009 20:00 15,8 C 70 % 1016,5 hPa 1,2 l/m 27,7 km/h (5 Bft) NW 0,00 h 0 W/m 10,4 C 9,3 C 27,7 km/h (5 Bft)
30.07.2009 21:00 14,3 C 81 % 1016,5 hPa 0,0 l/m 15,2 km/h (3 Bft) W 0,00 h 0 W/m 11,0 C 10,2 C 15,2 km/h (3 Bft)
30.07.2009 22:00 14,2 C 81 % 1016,8 hPa 0,0 l/m 14,0 km/h (3 Bft) W 0,00 h 0 W/m 11,0 C 10,7 C 14,0 km/h (3 Bft)
30.07.2009 23:00 14,2 C 80 % 1017,3 hPa 0,0 l/m 21,9 km/h (4 Bft) W 0,00 h 0 W/m 10,8 C 8,3 C 21,9 km/h (4 Bft)
31.07.2009 00:00 14,0 C 80 % 1017,5 hPa 0,0 l/m 25,3 km/h (4 Bft) W 0,00 h 0 W/m 10,5 C 7,2 C 25,3 km/h (4 Bft)
31.07.2009 01:00 13,6 C 84 % 1017,6 hPa 0,9 l/m 24,4 km/h (4 Bft) W 0,00 h 0 W/m 11,0 C 6,9 C 24,4 km/h (4 Bft)
31.07.2009 02:00 12,8 C 88 % 1018,4 hPa 0,0 l/m 22,7 km/h (4 Bft) W 0,00 h 0 W/m 10,9 C 6,3 C 22,7 km/h (4 Bft)
31.07.2009 03:00 12,8 C 89 % 1018,5 hPa 0,0 l/m 24,0 km/h (4 Bft) W 0,00 h 0 W/m 11,1 C 6,0 C 24,0 km/h (4 Bft)
31.07.2009 04:00 13,2 C 89 % 1018,5 hPa 0,0 l/m 23,3 km/h (4 Bft) W 0,00 h 0 W/m 11,4 C 6,6 C 23,3 km/h (4 Bft)
31.07.2009 05:00 13,4 C 89 % 1018,7 hPa 0,0 l/m 21,8 km/h (4 Bft) W 0,00 h 0 W/m 11,7 C 7,3 C 21,8 km/h (4 Bft)
31.07.2009 06:00 14,1 C 89 % 1019,5 hPa 0,0 l/m 20,8 km/h (4 Bft) W 0,00 h 0 W/m 12,2 C 8,4 C 20,8 km/h (4 Bft)
31.07.2009 07:00 14,7 C 86 % 1019,5 hPa 0,0 l/m 20,4 km/h (4 Bft) W 0,00 h 0 W/m 12,5 C 9,4 C 20,4 km/h (4 Bft)
31.07.2009 08:00 15,2 C 85 % 1020,0 hPa 0,0 l/m 26,5 km/h (4 Bft) W 0,00 h 0 W/m 12,6 C 8,7 C 26,5 km/h (4 Bft)
31.07.2009 09:00 16,2 C 80 % 1020,5 hPa 0,0 l/m 26,4 km/h (4 Bft) W 0,00 h 0 W/m 12,8 C 9,9 C 26,4 km/h (4 Bft)
31.07.2009 10:00 19,0 C 68 % 1020,5 hPa 0,0 l/m 24,4 km/h (4 Bft) W 0,00 h 0 W/m 13,0 C 14,1 C 24,4 km/h (4 Bft)
31.07.2009 11:00 19,8 C 63 % 1020,8 hPa 0,0 l/m 23,3 km/h (4 Bft) W 0,00 h 0 W/m 12,4 C 15,4 C 23,3 km/h (4 Bft)
31.07.2009 12:00 20,4 C 59 % 1021,5 hPa 0,0 l/m 24,6 km/h (4 Bft) W-NW 0,00 h 0 W/m 12,0 C 16,0 C 24,6 km/h (4 Bft)
31.07.2009 13:00 20,9 C 59 % 1021,3 hPa 0,0 l/m 22,4 km/h (4 Bft) NW 0,00 h 0 W/m 12,5 C 16,9 C 22,4 km/h (4 Bft)
31.07.2009 14:00 21,3 C 56 % 1020,7 hPa 0,0 l/m 21,9 km/h (4 Bft) NW 0,00 h 0 W/m 12,1 C 17,6 C 21,9 km/h (4 Bft)
31.07.2009 15:00 21,4 C 54 % 1020,5 hPa 0,0 l/m 20,0 km/h (4 Bft) NW 0,00 h 0 W/m 11,7 C 18,0 C 20,0 km/h (4 Bft)
31.07.2009 16:00 21,3 C 53 % 1020,5 hPa 0,0 l/m 17,4 km/h (3 Bft) NW 0,00 h 0 W/m 11,4 C 18,4 C 17,4 km/h (3 Bft)
31.07.2009 17:00 20,7 C 56 % 1020,5 hPa 0,0 l/m 16,2 km/h (3 Bft) N 0,00 h 0 W/m 11,5 C 17,9 C 16,2 km/h (3 Bft)
31.07.2009 18:00 19,4 C 60 % 1020,5 hPa 0,0 l/m 14,0 km/h (3 Bft) N 0,00 h 0 W/m 11,4 C 16,9 C 14,0 km/h (3 Bft)
31.07.2009 19:00 18,6 C 63 % 1020,5 hPa 0,0 l/m 11,2 km/h (2 Bft) N 0,00 h 0 W/m 11,3 C 16,7 C 11,2 km/h (2 Bft)
31.07.2009 20:00 17,8 C 66 % 1020,5 hPa 0,0 l/m 4,4 km/h (1 Bft) N-NO 0,00 h 0 W/m 11,4 C 17,4 C 4,4 km/h (1 Bft)
31.07.2009 21:00 17,0 C 69 % 1020,3 hPa 0,0 l/m 0,0 km/h (0 Bft) N 0,00 h 0 W/m 11,3 C 17,0 C 0,0 km/h (0 Bft)
31.07.2009 22:00 16,5 C 71 % 1019,8 hPa 0,0 l/m 0,0 km/h (0 Bft) N 0,00 h 0 W/m 11,3 C 16,5 C 0,0 km/h (0 Bft)
31.07.2009 23:00 15,7 C 73 % 1019,5 hPa 0,0 l/m 0,0 km/h (0 Bft) N 0,00 h 0 W/m 10,9 C 15,7 C 0,0 km/h (0 Bft)
01.08.2009 00:00 14,9 C 76 % 1019,5 hPa 0,0 l/m 0,0 km/h (0 Bft) N 0,00 h 0 W/m 10,7 C 14,9 C 0,0 km/h (0 Bft)
01.08.2009 01:00 14,4 C 78 % 1019,5 hPa 0,0 l/m 0,0 km/h (0 Bft) N 0,00 h 0 W/m 10,6 C 14,4 C 0,0 km/h (0 Bft)
01.08.2009 02:00 14,0 C 80 % 1018,8 hPa 0,0 l/m 2,7 km/h (1 Bft) O-SO 0,00 h 0 W/m 10,7 C 14,0 C 2,7 km/h (1 Bft)
01.08.2009 03:00 14,3 C 81 % 1018,5 hPa 0,0 l/m 4,6 km/h (1 Bft) SO 0,00 h 0 W/m 11,2 C 14,3 C 4,6 km/h (1 Bft)
01.08.2009 04:00 14,3 C 82 % 1017,8 hPa 0,0 l/m 4,0 km/h (1 Bft) S-SO 0,00 h 0 W/m 11,2 C 14,2 C 4,0 km/h (1 Bft)
01.08.2009 05:00 14,4 C 80 % 1017,5 hPa 0,0 l/m 6,2 km/h (2 Bft) SO 0,00 h 0 W/m 11,1 C 13,9 C 6,2 km/h (2 Bft)
01.08.2009 06:00 14,9 C 79 % 1016,8 hPa 0,0 l/m 7,2 km/h (2 Bft) S-SO 0,00 h 0 W/m 11,2 C 14,4 C 7,2 km/h (2 Bft)
01.08.2009 07:00 15,0 C 78 % 1016,5 hPa 0,0 l/m 8,8 km/h (2 Bft) S-SO 0,00 h 0 W/m 11,2 C 13,7 C 8,8 km/h (2 Bft)
01.08.2009 08:00 15,8 C 77 % 1016,3 hPa 0,0 l/m 10,4 km/h (2 Bft) S-SO 0,00 h 0 W/m 11,8 C 13,9 C 10,4 km/h (2 Bft)
01.08.2009 09:00 17,3 C 73 % 1015,5 hPa 0,0 l/m 12,3 km/h (2 Bft) S-SO 0,00 h 0 W/m 12,3 C 14,8 C 12,3 km/h (2 Bft)
01.08.2009 10:00 20,6 C 62 % 1015,3 hPa 0,0 l/m 14,1 km/h (3 Bft) S 0,00 h 0 W/m 12,9 C 18,2 C 14,1 km/h (3 Bft)
01.08.2009 11:00 22,0 C 56 % 1014,4 hPa 0,0 l/m 15,5 km/h (3 Bft) S-SO 0,00 h 0 W/m 12,8 C 19,6 C 15,5 km/h (3 Bft)
01.08.2009 12:00 23,0 C 52 % 1013,5 hPa 0,0 l/m 15,5 km/h (3 Bft) S 0,00 h 0 W/m 12,4 C 20,8 C 15,5 km/h (3 Bft)
01.08.2009 13:00 22,2 C 56 % 1013,4 hPa 0,0 l/m 13,8 km/h (3 Bft) S 0,00 h 0 W/m 13,0 C 20,2 C 13,8 km/h (3 Bft)
01.08.2009 14:00 23,8 C 50 % 1012,5 hPa 0,0 l/m 15,4 km/h (3 Bft) S 0,00 h 0 W/m 12,7 C 21,9 C 15,4 km/h (3 Bft)
01.08.2009 15:00 25,1 C 48 % 1011,8 hPa 0,0 l/m 13,9 km/h (3 Bft) SO 0,00 h 0 W/m 13,3 C 23,6 C 13,9 km/h (3 Bft)
01.08.2009 16:00 25,1 C 45 % 1011,3 hPa 0,0 l/m 15,3 km/h (3 Bft) S-SW 0,00 h 0 W/m 12,4 C 23,4 C 15,3 km/h (3 Bft)
01.08.2009 17:00 24,8 C 47 % 1010,5 hPa 0,0 l/m 12,2 km/h (2 Bft) S 0,00 h 0 W/m 12,8 C 23,6 C 12,2 km/h (2 Bft)
01.08.2009 18:00 24,4 C 50 % 1010,3 hPa 0,0 l/m 8,9 km/h (2 Bft) S-SO 0,00 h 0 W/m 13,3 C 23,7 C 8,9 km/h (2 Bft)
01.08.2009 19:00 22,8 C 57 % 1009,5 hPa 0,0 l/m 5,9 km/h (2 Bft) O 0,00 h 0 W/m 13,8 C 22,7 C 5,9 km/h (2 Bft)
01.08.2009 20:00 21,2 C 64 % 1009,4 hPa 0,0 l/m 5,3 km/h (1 Bft) O-SO 0,00 h 0 W/m 14,1 C 21,0 C 5,3 km/h (1 Bft)
01.08.2009 21:00 20,4 C 68 % 1008,9 hPa 0,0 l/m 8,8 km/h (2 Bft) O-SO 0,00 h 0 W/m 14,3 C 19,4 C 8,8 km/h (2 Bft)
01.08.2009 22:00 20,0 C 70 % 1008,5 hPa 0,0 l/m 11,4 km/h (2 Bft) SO 0,00 h 0 W/m 14,4 C 18,2 C 11,4 km/h (2 Bft)
01.08.2009 23:00 19,6 C 72 % 1008,5 hPa 0,0 l/m 9,7 km/h (2 Bft) O-SO 0,00 h 0 W/m 14,3 C 18,3 C 9,7 km/h (2 Bft)
02.08.2009 00:00 18,9 C 74 % 1008,2 hPa 0,0 l/m 7,2 km/h (2 Bft) SO 0,00 h 0 W/m 14,1 C 18,3 C 7,2 km/h (2 Bft)
02.08.2009 01:00 18,1 C 76 % 1007,5 hPa 0,0 l/m 3,2 km/h (1 Bft) SO 0,00 h 0 W/m 13,8 C 18,1 C 3,2 km/h (1 Bft)
02.08.2009 02:00 17,5 C 77 % 1006,8 hPa 0,0 l/m 4,8 km/h (1 Bft) S-SO 0,00 h 0 W/m 13,4 C 17,4 C 4,8 km/h (1 Bft)
02.08.2009 03:00 17,3 C 77 % 1006,5 hPa 0,0 l/m 7,9 km/h (2 Bft) S 0,00 h 0 W/m 13,3 C 16,6 C 7,9 km/h (2 Bft)
02.08.2009 04:00 16,8 C 78 % 1006,2 hPa 0,0 l/m 8,7 km/h (2 Bft) S 0,00 h 0 W/m 13,0 C 15,7 C 8,7 km/h (2 Bft)
02.08.2009 05:00 16,8 C 79 % 1005,5 hPa 0,0 l/m 9,1 km/h (2 Bft) S 0,00 h 0 W/m 13,2 C 15,6 C 9,1 km/h (2 Bft)
02.08.2009 06:00 17,3 C 78 % 1005,5 hPa 0,0 l/m 10,9 km/h (2 Bft) S 0,00 h 0 W/m 13,5 C 15,4 C 10,9 km/h (2 Bft)
02.08.2009 07:00 17,8 C 79 % 1005,5 hPa 0,0 l/m 13,7 km/h (3 Bft) S 0,00 h 0 W/m 14,0 C 15,0 C 13,7 km/h (3 Bft)
02.08.2009 08:00 18,6 C 78 % 1005,5 hPa 0,0 l/m 10,7 km/h (2 Bft) S-SW 0,00 h 0 W/m 14,7 C 16,9 C 10,7 km/h (2 Bft)
02.08.2009 09:00 20,1 C 76 % 1005,2 hPa 0,0 l/m 7,3 km/h (2 Bft) S 0,00 h 0 W/m 15,7 C 19,6 C 7,3 km/h (2 Bft)
02.08.2009 10:00 21,8 C 72 % 1004,8 hPa 0,0 l/m 6,2 km/h (2 Bft) S 0,00 h 0 W/m 16,6 C 21,3 C 6,2 km/h (2 Bft)
02.08.2009 11:00 21,0 C 77 % 1004,5 hPa 0,0 l/m 2,7 km/h (1 Bft) SO 0,00 h 0 W/m 16,8 C 20,9 C 2,7 km/h (1 Bft)
02.08.2009 12:00 20,4 C 81 % 1005,4 hPa 0,3 l/m 8,9 km/h (2 Bft) W 0,00 h 0 W/m 17,0 C 19,3 C 8,9 km/h (2 Bft)
02.08.2009 13:00 18,9 C 86 % 1005,5 hPa 0,6 l/m 16,3 km/h (3 Bft) NW 0,00 h 0 W/m 16,5 C 15,6 C 16,3 km/h (3 Bft)
02.08.2009 14:00 19,6 C 86 % 1005,5 hPa 0,0 l/m 11,3 km/h (2 Bft) N-NW 0,00 h 0 W/m 17,3 C 17,8 C 11,3 km/h (2 Bft)
02.08.2009 15:00 21,0 C 81 % 1006,3 hPa 0,0 l/m 9,5 km/h (2 Bft) NW 0,00 h 0 W/m 17,6 C 19,9 C 9,5 km/h (2 Bft)
02.08.2009 16:00 20,2 C 81 % 1007,2 hPa 0,0 l/m 14,4 km/h (3 Bft) W-NW 0,00 h 0 W/m 16,9 C 17,7 C 14,4 km/h (3 Bft)
02.08.2009 17:00 19,0 C 86 % 1007,5 hPa 0,0 l/m 12,8 km/h (3 Bft) NW 0,00 h 0 W/m 16,6 C 16,8 C 12,8 km/h (3 Bft)
02.08.2009 18:00 19,8 C 81 % 1007,8 hPa 0,0 l/m 11,8 km/h (2 Bft) NW 0,00 h 0 W/m 16,4 C 18,0 C 11,8 km/h (2 Bft)
02.08.2009 19:00 19,2 C 82 % 1008,5 hPa 0,0 l/m 7,3 km/h (2 Bft) NW 0,00 h 0 W/m 16,1 C 18,6 C 7,3 km/h (2 Bft)
02.08.2009 20:00 18,6 C 84 % 1009,0 hPa 0,0 l/m 10,2 km/h (2 Bft) NW 0,00 h 0 W/m 15,9 C 17,0 C 10,2 km/h (2 Bft)
02.08.2009 21:00 17,6 C 89 % 1009,6 hPa 0,0 l/m 18,6 km/h (3 Bft) NW 0,00 h 0 W/m 15,7 C 13,6 C 18,6 km/h (3 Bft)
02.08.2009 22:00 17,1 C 90 % 1010,5 hPa 0,0 l/m 23,1 km/h (4 Bft) NW 0,00 h 0 W/m 15,5 C 11,9 C 23,1 km/h (4 Bft)
02.08.2009 23:00 17,0 C 87 % 1010,5 hPa 0,0 l/m 19,7 km/h (3 Bft) NW 0,00 h 0 W/m 14,8 C 12,4 C 19,7 km/h (3 Bft)
Min-Datum _ 31.07.09 27.07.09 02.08.09 - 27.07.09 - - - 30.07.09 31.07.09 27.07.09
_ Min-Zeit 02:25 16:16 09:40 - 00:01 - - - 20:50 03:15 00:01
Minimum _ 12,8 C 42 % 1004,5 hPa - 0,0 km/h (0 Bft) - - - 9,7 C 4,5 C 0,0 km/h (0 Bft)
Max-Datum _ 27.07.09 30.07.09 31.07.09 28.07.09 30.07.09 - 27.07.09 27.07.09 02.08.09 27.07.09 30.07.09
_ Max-Zeit 16:11 07:21 11:41 15:01 10:00 - 00:01 00:01 15:20 16:11 10:00
Maximum _ 27,4 C 91 % 1021,5 hPa 5,1 l/m 54,1 km/h
W (7 Bft)
- 0,00 h 0 W/m 18,0 C 26,0 C 54,1 km/h
W (7 Bft)
Durchschnitt _ 18,6 C 74 % 1013,3 hPa #23,4 l/m 14,4 km/h (3 Bft) W #0 min. 0 W/m 13,6 C 16,0 C 14,4 km/h (3 Bft)
copyright by Holger Just